sensor_id;sensor_type;location;lat;lon;timestamp;pressure;altitude;pressure_sealevel;temperature;humidity
32131;BME280;18639;50.716;7.086;2024-03-22T00:02:23;101060.13;;;10.69;100.00
32131;BME280;18639;50.716;7.086;2024-03-22T00:04:48;101044.47;;;10.56;100.00
32131;BME280;18639;50.716;7.086;2024-03-22T00:07:14;101056.03;;;10.65;100.00
32131;BME280;18639;50.716;7.086;2024-03-22T00:09:39;101062.88;;;10.66;100.00
32131;BME280;18639;50.716;7.086;2024-03-22T00:12:04;101054.53;;;10.61;100.00
32131;BME280;18639;50.716;7.086;2024-03-22T00:14:30;101061.22;;;10.65;100.00
32131;BME280;18639;50.716;7.086;2024-03-22T00:16:55;101058.69;;;10.63;100.00
32131;BME280;18639;50.716;7.086;2024-03-22T00:19:20;101059.66;;;10.62;100.00
32131;BME280;18639;50.716;7.086;2024-03-22T00:21:46;101055.47;;;10.60;100.00
32131;BME280;18639;50.716;7.086;2024-03-22T00:24:11;101055.38;;;10.61;100.00
32131;BME280;18639;50.716;7.086;2024-03-22T00:26:36;101046.97;;;10.58;100.00
32131;BME280;18639;50.716;7.086;2024-03-22T00:29:01;101040.28;;;10.53;100.00
32131;BME280;18639;50.716;7.086;2024-03-22T00:31:27;101046.88;;;10.59;100.00
32131;BME280;18639;50.716;7.086;2024-03-22T00:33:52;101047.56;;;10.63;100.00
32131;BME280;18639;50.716;7.086;2024-03-22T00:36:18;101039.81;;;10.63;100.00
32131;BME280;18639;50.716;7.086;2024-03-22T00:38:43;101045.56;;;10.68;100.00
32131;BME280;18639;50.716;7.086;2024-03-22T00:41:08;101039.81;;;10.63;100.00
32131;BME280;18639;50.716;7.086;2024-03-22T00:43:34;101043.97;;;10.65;100.00
32131;BME280;18639;50.716;7.086;2024-03-22T00:45:59;101031.94;;;10.64;100.00
32131;BME280;18639;50.716;7.086;2024-03-22T00:48:25;101017.03;;;10.53;100.00
32131;BME280;18639;50.716;7.086;2024-03-22T00:50:50;101033.88;;;10.61;100.00
32131;BME280;18639;50.716;7.086;2024-03-22T00:53:16;101031.28;;;10.61;100.00
32131;BME280;18639;50.716;7.086;2024-03-22T00:55:41;101031.28;;;10.61;100.00
32131;BME280;18639;50.716;7.086;2024-03-22T00:58:07;101016.28;;;10.51;100.00
32131;BME280;18639;50.716;7.086;2024-03-22T01:00:32;101005.19;;;10.49;100.00
32131;BME280;18639;50.716;7.086;2024-03-22T01:02:57;101013.78;;;10.50;100.00
32131;BME280;18639;50.716;7.086;2024-03-22T01:05:22;101002.00;;;10.44;100.00
32131;BME280;18639;50.716;7.086;2024-03-22T01:07:48;101001.84;;;10.47;100.00
32131;BME280;18639;50.716;7.086;2024-03-22T01:10:13;101005.50;;;10.43;100.00
32131;BME280;18639;50.716;7.086;2024-03-22T01:12:39;101014.16;;;10.42;100.00
32131;BME280;18639;50.716;7.086;2024-03-22T01:15:06;100995.34;;;10.40;100.00
32131;BME280;18639;50.716;7.086;2024-03-22T01:17:31;100995.34;;;10.40;100.00
32131;BME280;18639;50.716;7.086;2024-03-22T01:19:57;100991.09;;;10.39;100.00
32131;BME280;18639;50.716;7.086;2024-03-22T01:22:22;100980.00;;;10.37;100.00
32131;BME280;18639;50.716;7.086;2024-03-22T01:24:48;100970.00;;;10.31;100.00
32131;BME280;18639;50.716;7.086;2024-03-22T01:27:13;100966.50;;;10.32;100.00
32131;BME280;18639;50.716;7.086;2024-03-22T01:29:38;100970.81;;;10.32;100.00
32131;BME280;18639;50.716;7.086;2024-03-22T01:32:04;100976.81;;;10.32;100.00
32131;BME280;18639;50.716;7.086;2024-03-22T01:34:29;100969.06;;;10.32;100.00
32131;BME280;18639;50.716;7.086;2024-03-22T01:36:54;100972.66;;;10.30;100.00
32131;BME280;18639;50.716;7.086;2024-03-22T01:39:20;100971.00;;;10.29;100.00
32131;BME280;18639;50.716;7.086;2024-03-22T01:41:52;100948.31;;;10.18;100.00
32131;BME280;18639;50.716;7.086;2024-03-22T01:44:18;100964.94;;;10.30;100.00
32131;BME280;18639;50.716;7.086;2024-03-22T01:46:44;100965.75;;;10.30;100.00
32131;BME280;18639;50.716;7.086;2024-03-22T01:49:12;100958.66;;;10.34;100.00
32131;BME280;18639;50.716;7.086;2024-03-22T01:51:39;100963.75;;;10.35;100.00
32131;BME280;18639;50.716;7.086;2024-03-22T01:54:11;100953.44;;;10.35;100.00
32131;BME280;18639;50.716;7.086;2024-03-22T01:56:39;100944.16;;;10.31;100.00
32131;BME280;18639;50.716;7.086;2024-03-22T01:59:05;100928.25;;;10.23;100.00
32131;BME280;18639;50.716;7.086;2024-03-22T02:01:31;100944.34;;;10.28;100.00
32131;BME280;18639;50.716;7.086;2024-03-22T02:03:57;100943.34;;;10.31;100.00
32131;BME280;18639;50.716;7.086;2024-03-22T02:06:22;100932.31;;;10.27;100.00
32131;BME280;18639;50.716;7.086;2024-03-22T02:08:47;100945.09;;;10.30;100.00
32131;BME280;18639;50.716;7.086;2024-03-22T02:11:13;100928.44;;;10.20;100.00
32131;BME280;18639;50.716;7.086;2024-03-22T02:13:38;100929.16;;;10.22;100.00
32131;BME280;18639;50.716;7.086;2024-03-22T02:16:04;100921.34;;;10.24;100.00
32131;BME280;18639;50.716;7.086;2024-03-22T02:18:29;100913.66;;;10.22;100.00
32131;BME280;18639;50.716;7.086;2024-03-22T02:20:57;100911.84;;;10.24;100.00
32131;BME280;18639;50.716;7.086;2024-03-22T02:23:36;100886.47;;;10.15;100.00
32131;BME280;18639;50.716;7.086;2024-03-22T02:26:02;100889.69;;;10.20;100.00
32131;BME280;18639;50.716;7.086;2024-03-22T02:28:27;100902.94;;;10.30;100.00
32131;BME280;18639;50.716;7.086;2024-03-22T02:30:53;100903.66;;;10.32;100.00
32131;BME280;18639;50.716;7.086;2024-03-22T02:33:18;100890.84;;;10.30;100.00
32131;BME280;18639;50.716;7.086;2024-03-22T02:35:46;100873.84;;;10.26;100.00
32131;BME280;18639;50.716;7.086;2024-03-22T02:38:12;100884.59;;;10.34;100.00
32131;BME280;18639;50.716;7.086;2024-03-22T02:40:37;100888.66;;;10.38;100.00
32131;BME280;18639;50.716;7.086;2024-03-22T02:43:02;100883.50;;;10.38;100.00
32131;BME280;18639;50.716;7.086;2024-03-22T02:45:29;100873.34;;;10.35;100.00
32131;BME280;18639;50.716;7.086;2024-03-22T02:47:55;100884.06;;;10.43;100.00
32131;BME280;18639;50.716;7.086;2024-03-22T02:50:21;100873.81;;;10.42;100.00
32131;BME280;18639;50.716;7.086;2024-03-22T02:52:46;100871.00;;;10.46;100.00
32131;BME280;18639;50.716;7.086;2024-03-22T02:55:13;100873.34;;;10.51;100.00
32131;BME280;18639;50.716;7.086;2024-03-22T02:57:38;100867.31;;;10.50;100.00
32131;BME280;18639;50.716;7.086;2024-03-22T03:00:03;100873.81;;;10.58;100.00
32131;BME280;18639;50.716;7.086;2024-03-22T03:02:30;100866.16;;;10.56;100.00
32131;BME280;18639;50.716;7.086;2024-03-22T03:04:55;100859.13;;;10.58;100.00
32131;BME280;18639;50.716;7.086;2024-03-22T03:07:20;100853.16;;;10.58;100.00
32131;BME280;18639;50.716;7.086;2024-03-22T03:09:45;100840.97;;;10.60;100.00
32131;BME280;18639;50.716;7.086;2024-03-22T03:12:11;100846.44;;;10.69;100.00
32131;BME280;18639;50.716;7.086;2024-03-22T03:14:36;100824.34;;;10.64;100.00
32131;BME280;18639;50.716;7.086;2024-03-22T03:17:02;100847.09;;;10.73;100.00
32131;BME280;18639;50.716;7.086;2024-03-22T03:19:27;100845.94;;;10.78;100.00
32131;BME280;18639;50.716;7.086;2024-03-22T03:21:52;100846.75;;;10.79;100.00
32131;BME280;18639;50.716;7.086;2024-03-22T03:24:18;100851.66;;;10.83;100.00
32131;BME280;18639;50.716;7.086;2024-03-22T03:26:43;100842.72;;;10.89;100.00
32131;BME280;18639;50.716;7.086;2024-03-22T03:29:08;100854.34;;;10.96;100.00
32131;BME280;18639;50.716;7.086;2024-03-22T03:31:34;100838.13;;;10.94;100.00
32131;BME280;18639;50.716;7.086;2024-03-22T03:33:59;100836.81;;;11.01;100.00
32131;BME280;18639;50.716;7.086;2024-03-22T03:36:24;100835.19;;;11.00;100.00
32131;BME280;18639;50.716;7.086;2024-03-22T03:38:49;100833.50;;;10.99;100.00
32131;BME280;18639;50.716;7.086;2024-03-22T03:41:15;100848.13;;;11.14;100.00
32131;BME280;18639;50.716;7.086;2024-03-22T03:43:40;100828.72;;;11.07;100.00
32131;BME280;18639;50.716;7.086;2024-03-22T03:46:05;100838.53;;;11.16;100.00
32131;BME280;18639;50.716;7.086;2024-03-22T03:48:30;100823.25;;;11.12;100.00
32131;BME280;18639;50.716;7.086;2024-03-22T03:50:56;100823.94;;;11.15;100.00
32131;BME280;18639;50.716;7.086;2024-03-22T03:53:24;100813.59;;;11.15;100.00
32131;BME280;18639;50.716;7.086;2024-03-22T03:55:50;100807.56;;;11.15;100.00
32131;BME280;18639;50.716;7.086;2024-03-22T03:58:15;100810.53;;;11.23;100.00
32131;BME280;18639;50.716;7.086;2024-03-22T04:00:43;100829.66;;;11.34;100.00
32131;BME280;18639;50.716;7.086;2024-03-22T04:03:08;100824.69;;;11.31;100.00
32131;BME280;18639;50.716;7.086;2024-03-22T04:05:33;100827.81;;;11.36;100.00
32131;BME280;18639;50.716;7.086;2024-03-22T04:07:58;100814.13;;;11.34;100.00
32131;BME280;18639;50.716;7.086;2024-03-22T04:10:24;100806.66;;;11.30;100.00
32131;BME280;18639;50.716;7.086;2024-03-22T04:12:49;100822.44;;;11.39;100.00
32131;BME280;18639;50.716;7.086;2024-03-22T04:15:14;100803.97;;;11.31;100.00
32131;BME280;18639;50.716;7.086;2024-03-22T04:17:39;100814.06;;;11.36;100.00
32131;BME280;18639;50.716;7.086;2024-03-22T04:20:05;100819.88;;;11.39;100.00
32131;BME280;18639;50.716;7.086;2024-03-22T04:22:31;100801.56;;;11.28;100.00
32131;BME280;18639;50.716;7.086;2024-03-22T04:24:56;100810.44;;;11.38;100.00
32131;BME280;18639;50.716;7.086;2024-03-22T04:27:21;100795.94;;;11.36;100.00
32131;BME280;18639;50.716;7.086;2024-03-22T04:29:47;100797.50;;;11.38;100.00
32131;BME280;18639;50.716;7.086;2024-03-22T04:32:12;100798.78;;;11.46;100.00
32131;BME280;18639;50.716;7.086;2024-03-22T04:34:41;100789.56;;;11.42;100.00
32131;BME280;18639;50.716;7.086;2024-03-22T04:37:07;100796.00;;;11.49;100.00
32131;BME280;18639;50.716;7.086;2024-03-22T04:39:32;100799.34;;;11.51;100.00
32131;BME280;18639;50.716;7.086;2024-03-22T04:41:57;100789.19;;;11.48;100.00
32131;BME280;18639;50.716;7.086;2024-03-22T04:44:23;100792.50;;;11.50;100.00
32131;BME280;18639;50.716;7.086;2024-03-22T04:46:48;100777.19;;;11.47;100.00
32131;BME280;18639;50.716;7.086;2024-03-22T04:49:13;100791.50;;;11.52;100.00
32131;BME280;18639;50.716;7.086;2024-03-22T04:51:38;100765.16;;;11.46;100.00
32131;BME280;18639;50.716;7.086;2024-03-22T04:54:04;100771.72;;;11.51;100.00
32131;BME280;18639;50.716;7.086;2024-03-22T04:56:29;100783.44;;;11.57;100.00
32131;BME280;18639;50.716;7.086;2024-03-22T04:58:54;100767.38;;;11.52;100.00
32131;BME280;18639;50.716;7.086;2024-03-22T05:01:20;100765.97;;;11.60;100.00
32131;BME280;18639;50.716;7.086;2024-03-22T05:03:45;100771.25;;;11.59;100.00
32131;BME280;18639;50.716;7.086;2024-03-22T05:06:11;100768.75;;;11.57;100.00
32131;BME280;18639;50.716;7.086;2024-03-22T05:08:36;100748.34;;;11.53;100.00
32131;BME280;18639;50.716;7.086;2024-03-22T05:11:01;100753.31;;;11.56;100.00
32131;BME280;18639;50.716;7.086;2024-03-22T05:13:28;100761.06;;;11.56;100.00
32131;BME280;18639;50.716;7.086;2024-03-22T05:15:53;100742.50;;;11.49;100.00
32131;BME280;18639;50.716;7.086;2024-03-22T05:18:18;100744.25;;;11.49;100.00
32131;BME280;18639;50.716;7.086;2024-03-22T05:20:44;100745.09;;;11.49;100.00
32131;BME280;18639;50.716;7.086;2024-03-22T05:23:09;100733.19;;;11.47;100.00
32131;BME280;18639;50.716;7.086;2024-03-22T05:25:34;100740.84;;;11.48;100.00
32131;BME280;18639;50.716;7.086;2024-03-22T05:27:59;100738.34;;;11.47;100.00
32131;BME280;18639;50.716;7.086;2024-03-22T05:30:25;100737.44;;;11.48;100.00
32131;BME280;18639;50.716;7.086;2024-03-22T05:32:50;100727.63;;;11.53;100.00
32131;BME280;18639;50.716;7.086;2024-03-22T05:35:16;100713.69;;;11.41;100.00
32131;BME280;18639;50.716;7.086;2024-03-22T05:37:41;100727.91;;;11.48;100.00
32131;BME280;18639;50.716;7.086;2024-03-22T05:40:07;100727.16;;;11.46;100.00
32131;BME280;18639;50.716;7.086;2024-03-22T05:42:33;100730.59;;;11.47;100.00
32131;BME280;18639;50.716;7.086;2024-03-22T05:44:59;100714.59;;;11.40;100.00
32131;BME280;18639;50.716;7.086;2024-03-22T05:47:24;100727.81;;;11.50;100.00
32131;BME280;18639;50.716;7.086;2024-03-22T05:49:49;100723.75;;;11.46;100.00
32131;BME280;18639;50.716;7.086;2024-03-22T05:52:15;100714.84;;;11.50;100.00
32131;BME280;18639;50.716;7.086;2024-03-22T05:54:40;100722.16;;;11.57;100.00
32131;BME280;18639;50.716;7.086;2024-03-22T05:57:07;100733.06;;;11.62;100.00
32131;BME280;18639;50.716;7.086;2024-03-22T05:59:32;100704.88;;;11.58;100.00
32131;BME280;18639;50.716;7.086;2024-03-22T06:01:57;100712.25;;;11.64;100.00
32131;BME280;18639;50.716;7.086;2024-03-22T06:04:23;100718.59;;;11.72;100.00
32131;BME280;18639;50.716;7.086;2024-03-22T06:06:48;100698.28;;;11.66;100.00
32131;BME280;18639;50.716;7.086;2024-03-22T06:09:14;100708.34;;;11.71;100.00
32131;BME280;18639;50.716;7.086;2024-03-22T06:11:48;100705.75;;;11.71;100.00
32131;BME280;18639;50.716;7.086;2024-03-22T06:14:14;100707.28;;;11.75;100.00
32131;BME280;18639;50.716;7.086;2024-03-22T06:16:39;100715.56;;;11.80;100.00
32131;BME280;18639;50.716;7.086;2024-03-22T06:19:04;100691.31;;;11.81;100.00
32131;BME280;18639;50.716;7.086;2024-03-22T06:21:29;100699.63;;;11.86;100.00
32131;BME280;18639;50.716;7.086;2024-03-22T06:23:55;100683.28;;;11.86;100.00
32131;BME280;18639;50.716;7.086;2024-03-22T06:26:20;100677.97;;;11.87;100.00
32131;BME280;18639;50.716;7.086;2024-03-22T06:28:45;100686.50;;;11.89;100.00
32131;BME280;18639;50.716;7.086;2024-03-22T06:31:11;100683.38;;;11.97;100.00
32131;BME280;18639;50.716;7.086;2024-03-22T06:33:37;100684.88;;;12.01;100.00
32131;BME280;18639;50.716;7.086;2024-03-22T06:36:02;100675.75;;;11.95;100.00
32131;BME280;18639;50.716;7.086;2024-03-22T06:38:28;100678.94;;;11.99;100.00
32131;BME280;18639;50.716;7.086;2024-03-22T06:40:53;100672.00;;;11.99;100.00
32131;BME280;18639;50.716;7.086;2024-03-22T06:43:18;100689.66;;;12.07;100.00
32131;BME280;18639;50.716;7.086;2024-03-22T06:45:44;100688.69;;;12.08;100.00
32131;BME280;18639;50.716;7.086;2024-03-22T06:48:09;100676.06;;;12.03;100.00
32131;BME280;18639;50.716;7.086;2024-03-22T06:50:34;100676.78;;;12.05;100.00
32131;BME280;18639;50.716;7.086;2024-03-22T06:53:00;100685.09;;;12.10;100.00
32131;BME280;18639;50.716;7.086;2024-03-22T06:55:25;100691.56;;;12.17;100.00
32131;BME280;18639;50.716;7.086;2024-03-22T06:57:51;100688.75;;;12.20;100.00
32131;BME280;18639;50.716;7.086;2024-03-22T07:00:18;100687.38;;;12.15;100.00
32131;BME280;18639;50.716;7.086;2024-03-22T07:02:43;100682.63;;;12.21;100.00
32131;BME280;18639;50.716;7.086;2024-03-22T07:05:09;100680.25;;;12.31;100.00
32131;BME280;18639;50.716;7.086;2024-03-22T07:07:35;100676.00;;;12.30;100.00
32131;BME280;18639;50.716;7.086;2024-03-22T07:10:02;100661.69;;;12.24;100.00
32131;BME280;18639;50.716;7.086;2024-03-22T07:12:27;100667.91;;;12.35;100.00
32131;BME280;18639;50.716;7.086;2024-03-22T07:14:53;100671.16;;;12.38;100.00
32131;BME280;18639;50.716;7.086;2024-03-22T07:17:18;100680.06;;;12.47;100.00
32131;BME280;18639;50.716;7.086;2024-03-22T07:19:49;100683.00;;;12.55;100.00
32131;BME280;18639;50.716;7.086;2024-03-22T07:22:14;100682.78;;;12.58;100.00
32131;BME280;18639;50.716;7.086;2024-03-22T07:24:39;100674.19;;;12.70;100.00
32131;BME280;18639;50.716;7.086;2024-03-22T07:27:04;100681.41;;;12.90;100.00
32131;BME280;18639;50.716;7.086;2024-03-22T07:29:30;100679.94;;;12.99;100.00
32131;BME280;18639;50.716;7.086;2024-03-22T07:31:55;100672.91;;;13.14;100.00
32131;BME280;18639;50.716;7.086;2024-03-22T07:34:20;100671.19;;;13.25;100.00
32131;BME280;18639;50.716;7.086;2024-03-22T07:36:45;100669.91;;;13.43;100.00
32131;BME280;18639;50.716;7.086;2024-03-22T07:39:11;100668.09;;;13.57;100.00
32131;BME280;18639;50.716;7.086;2024-03-22T07:41:36;100672.84;;;13.86;100.00
32131;BME280;18639;50.716;7.086;2024-03-22T07:44:01;100672.69;;;14.12;100.00
32131;BME280;18639;50.716;7.086;2024-03-22T07:46:27;100659.66;;;14.36;100.00
32131;BME280;18639;50.716;7.086;2024-03-22T07:48:53;100662.56;;;14.66;100.00
32131;BME280;18639;50.716;7.086;2024-03-22T07:51:19;100655.47;;;14.90;100.00
32131;BME280;18639;50.716;7.086;2024-03-22T07:53:44;100646.47;;;15.16;100.00
32131;BME280;18639;50.716;7.086;2024-03-22T07:56:09;100658.94;;;15.56;100.00
32131;BME280;18639;50.716;7.086;2024-03-22T07:58:34;100645.50;;;15.72;100.00
32131;BME280;18639;50.716;7.086;2024-03-22T08:01:00;100646.91;;;15.76;100.00
32131;BME280;18639;50.716;7.086;2024-03-22T08:03:25;100640.47;;;15.59;100.00
32131;BME280;18639;50.716;7.086;2024-03-22T08:05:50;100644.84;;;15.58;100.00
32131;BME280;18639;50.716;7.086;2024-03-22T08:08:15;100648.03;;;15.51;100.00
32131;BME280;18639;50.716;7.086;2024-03-22T08:10:41;100634.19;;;15.39;100.00
32131;BME280;18639;50.716;7.086;2024-03-22T08:13:06;100654.81;;;15.42;100.00
32131;BME280;18639;50.716;7.086;2024-03-22T08:15:31;100652.13;;;15.33;100.00
32131;BME280;18639;50.716;7.086;2024-03-22T08:17:57;100646.06;;;15.32;100.00
32131;BME280;18639;50.716;7.086;2024-03-22T08:20:25;100642.84;;;15.40;100.00
32131;BME280;18639;50.716;7.086;2024-03-22T08:22:50;100640.84;;;15.54;100.00
32131;BME280;18639;50.716;7.086;2024-03-22T08:25:15;100625.09;;;15.77;100.00
32131;BME280;18639;50.716;7.086;2024-03-22T08:27:43;100635.75;;;16.06;100.00
32131;BME280;18639;50.716;7.086;2024-03-22T08:30:10;100632.25;;;16.16;100.00
32131;BME280;18639;50.716;7.086;2024-03-22T08:32:35;100632.31;;;16.26;100.00
32131;BME280;18639;50.716;7.086;2024-03-22T08:35:01;100620.97;;;16.36;100.00
32131;BME280;18639;50.716;7.086;2024-03-22T08:37:26;100619.50;;;16.64;100.00
32131;BME280;18639;50.716;7.086;2024-03-22T08:39:51;100635.75;;;16.77;100.00
32131;BME280;18639;50.716;7.086;2024-03-22T08:42:17;100618.56;;;16.75;100.00
32131;BME280;18639;50.716;7.086;2024-03-22T08:44:42;100623.53;;;16.78;100.00
32131;BME280;18639;50.716;7.086;2024-03-22T08:47:08;100614.75;;;16.89;100.00
32131;BME280;18639;50.716;7.086;2024-03-22T08:49:34;100609.22;;;17.12;97.69
32131;BME280;18639;50.716;7.086;2024-03-22T08:52:01;100615.03;;;17.45;96.28
32131;BME280;18639;50.716;7.086;2024-03-22T08:54:27;100601.28;;;17.43;95.68
32131;BME280;18639;50.716;7.086;2024-03-22T08:56:52;100600.00;;;17.18;96.86
32131;BME280;18639;50.716;7.086;2024-03-22T08:59:18;100609.31;;;17.01;96.86
32131;BME280;18639;50.716;7.086;2024-03-22T09:01:44;100591.50;;;16.66;97.86
32131;BME280;18639;50.716;7.086;2024-03-22T09:04:09;100590.66;;;16.66;99.23
32131;BME280;18639;50.716;7.086;2024-03-22T09:06:34;100606.19;;;16.67;100.00
32131;BME280;18639;50.716;7.086;2024-03-22T09:08:59;100610.06;;;16.52;100.00
32131;BME280;18639;50.716;7.086;2024-03-22T09:11:25;100586.22;;;16.36;100.00
32131;BME280;18639;50.716;7.086;2024-03-22T09:13:53;100595.16;;;16.33;100.00
32131;BME280;18639;50.716;7.086;2024-03-22T09:16:20;100590.97;;;16.21;100.00
32131;BME280;18639;50.716;7.086;2024-03-22T09:18:46;100598.88;;;16.10;100.00
32131;BME280;18639;50.716;7.086;2024-03-22T09:21:11;100599.88;;;15.98;100.00
32131;BME280;18639;50.716;7.086;2024-03-22T09:23:37;100606.31;;;15.94;100.00
32131;BME280;18639;50.716;7.086;2024-03-22T09:26:02;100598.03;;;15.89;100.00
32131;BME280;18639;50.716;7.086;2024-03-22T09:28:28;100590.34;;;15.87;100.00
32131;BME280;18639;50.716;7.086;2024-03-22T09:30:53;100583.56;;;15.75;100.00
32131;BME280;18639;50.716;7.086;2024-03-22T09:33:18;100580.16;;;15.64;100.00
32131;BME280;18639;50.716;7.086;2024-03-22T09:35:44;100585.56;;;15.72;100.00
32131;BME280;18639;50.716;7.086;2024-03-22T09:38:09;100597.22;;;15.88;100.00
32131;BME280;18639;50.716;7.086;2024-03-22T09:40:37;100581.84;;;15.85;100.00
32131;BME280;18639;50.716;7.086;2024-03-22T09:43:06;100578.34;;;15.96;100.00
32131;BME280;18639;50.716;7.086;2024-03-22T09:45:32;100578.00;;;16.10;100.00
32131;BME280;18639;50.716;7.086;2024-03-22T09:47:57;100586.47;;;16.23;100.00
32131;BME280;18639;50.716;7.086;2024-03-22T09:50:23;100569.53;;;16.48;100.00
32131;BME280;18639;50.716;7.086;2024-03-22T09:52:48;100579.91;;;16.99;100.00
32131;BME280;18639;50.716;7.086;2024-03-22T09:55:15;100564.09;;;17.10;100.00
32131;BME280;18639;50.716;7.086;2024-03-22T09:57:41;100570.88;;;17.22;99.86
32131;BME280;18639;50.716;7.086;2024-03-22T10:00:08;100560.72;;;17.19;96.87
32131;BME280;18639;50.716;7.086;2024-03-22T10:02:34;100563.56;;;17.07;97.08
32131;BME280;18639;50.716;7.086;2024-03-22T10:05:00;100565.31;;;16.87;98.20
32131;BME280;18639;50.716;7.086;2024-03-22T10:07:25;100571.38;;;16.88;97.98
32131;BME280;18639;50.716;7.086;2024-03-22T10:10:00;100548.03;;;17.05;97.68
32131;BME280;18639;50.716;7.086;2024-03-22T10:12:25;100560.13;;;17.25;95.11
32131;BME280;18639;50.716;7.086;2024-03-22T10:14:52;100552.50;;;17.62;95.26
32131;BME280;18639;50.716;7.086;2024-03-22T10:17:18;100558.78;;;17.41;92.56
32131;BME280;18639;50.716;7.086;2024-03-22T10:19:43;100556.19;;;17.41;92.37
32131;BME280;18639;50.716;7.086;2024-03-22T10:22:09;100543.78;;;17.52;96.54
32131;BME280;18639;50.716;7.086;2024-03-22T10:24:34;100547.91;;;17.55;93.43
32131;BME280;18639;50.716;7.086;2024-03-22T10:27:00;100547.25;;;17.72;94.28
32131;BME280;18639;50.716;7.086;2024-03-22T10:29:26;100548.31;;;17.79;93.55
32131;BME280;18639;50.716;7.086;2024-03-22T10:31:53;100544.75;;;17.71;91.72
32131;BME280;18639;50.716;7.086;2024-03-22T10:34:20;100547.50;;;17.69;91.45
32131;BME280;18639;50.716;7.086;2024-03-22T10:36:46;100542.16;;;17.61;88.34
32131;BME280;18639;50.716;7.086;2024-03-22T10:39:15;100542.56;;;17.66;86.53
32131;BME280;18639;50.716;7.086;2024-03-22T10:41:42;100543.50;;;17.55;88.46
32131;BME280;18639;50.716;7.086;2024-03-22T10:44:07;100529.91;;;17.33;87.61
32131;BME280;18639;50.716;7.086;2024-03-22T10:46:34;100532.38;;;17.24;87.73
32131;BME280;18639;50.716;7.086;2024-03-22T10:49:02;100525.63;;;17.12;89.68
32131;BME280;18639;50.716;7.086;2024-03-22T10:51:29;100526.44;;;16.94;88.94
32131;BME280;18639;50.716;7.086;2024-03-22T10:53:57;100525.19;;;16.88;90.55
32131;BME280;18639;50.716;7.086;2024-03-22T10:56:24;100515.97;;;16.84;92.45
32131;BME280;18639;50.716;7.086;2024-03-22T10:58:50;100509.81;;;16.85;93.51
32131;BME280;18639;50.716;7.086;2024-03-22T11:01:26;100506.78;;;16.90;93.11
32131;BME280;18639;50.716;7.086;2024-03-22T11:04:05;100518.34;;;17.06;93.48
32131;BME280;18639;50.716;7.086;2024-03-22T11:06:37;100499.94;;;16.98;90.66
32131;BME280;18639;50.716;7.086;2024-03-22T11:09:03;100508.31;;;17.11;90.77
32131;BME280;18639;50.716;7.086;2024-03-22T11:11:35;100504.88;;;17.11;90.47
32131;BME280;18639;50.716;7.086;2024-03-22T11:14:03;100498.97;;;17.09;90.12
32131;BME280;18639;50.716;7.086;2024-03-22T11:16:28;100494.59;;;17.09;89.32
32131;BME280;18639;50.716;7.086;2024-03-22T11:18:54;100496.91;;;17.22;90.07
32131;BME280;18639;50.716;7.086;2024-03-22T11:21:20;100486.19;;;17.15;88.64
32131;BME280;18639;50.716;7.086;2024-03-22T11:23:46;100487.00;;;17.16;87.63
32131;BME280;18639;50.716;7.086;2024-03-22T11:26:11;100479.56;;;17.21;86.68
32131;BME280;18639;50.716;7.086;2024-03-22T11:28:37;100478.50;;;17.14;85.24
32131;BME280;18639;50.716;7.086;2024-03-22T11:31:03;100475.47;;;17.18;85.58
32131;BME280;18639;50.716;7.086;2024-03-22T11:33:30;100471.63;;;17.22;85.24
32131;BME280;18639;50.716;7.086;2024-03-22T11:35:58;100464.72;;;17.21;86.30
32131;BME280;18639;50.716;7.086;2024-03-22T11:38:23;100468.56;;;17.37;85.43
32131;BME280;18639;50.716;7.086;2024-03-22T11:40:52;100464.44;;;17.44;86.95
32131;BME280;18639;50.716;7.086;2024-03-22T11:43:17;100464.31;;;17.45;85.60
32131;BME280;18639;50.716;7.086;2024-03-22T11:45:43;100458.66;;;17.50;84.52
32131;BME280;18639;50.716;7.086;2024-03-22T11:48:09;100456.47;;;17.45;84.77
32131;BME280;18639;50.716;7.086;2024-03-22T11:50:36;100457.31;;;17.46;85.43
32131;BME280;18639;50.716;7.086;2024-03-22T11:53:02;100456.91;;;17.41;86.50
32131;BME280;18639;50.716;7.086;2024-03-22T11:55:28;100435.31;;;17.29;86.88
32131;BME280;18639;50.716;7.086;2024-03-22T11:57:57;100452.25;;;17.06;84.50
32131;BME280;18639;50.716;7.086;2024-03-22T12:00:22;100450.19;;;17.09;86.16
32131;BME280;18639;50.716;7.086;2024-03-22T12:02:50;100442.75;;;17.05;87.38
32131;BME280;18639;50.716;7.086;2024-03-22T12:05:17;100447.28;;;17.12;89.14
32131;BME280;18639;50.716;7.086;2024-03-22T12:07:42;100429.28;;;16.90;88.46
32131;BME280;18639;50.716;7.086;2024-03-22T12:10:07;100437.00;;;17.01;89.23
32131;BME280;18639;50.716;7.086;2024-03-22T12:12:33;100422.69;;;16.86;89.30
32131;BME280;18639;50.716;7.086;2024-03-22T12:14:58;100388.22;;;16.73;88.87
32131;BME280;18639;50.716;7.086;2024-03-22T12:17:23;100400.59;;;16.71;88.30
32131;BME280;18639;50.716;7.086;2024-03-22T12:19:49;100409.50;;;16.78;89.66
32131;BME280;18639;50.716;7.086;2024-03-22T12:22:14;100412.09;;;16.78;91.16
32131;BME280;18639;50.716;7.086;2024-03-22T12:24:39;100413.88;;;16.68;89.15
32131;BME280;18639;50.716;7.086;2024-03-22T12:27:04;100413.34;;;16.74;89.81
32131;BME280;18639;50.716;7.086;2024-03-22T12:29:33;100410.06;;;16.72;88.16
32131;BME280;18639;50.716;7.086;2024-03-22T12:31:59;100384.22;;;16.69;88.34
32131;BME280;18639;50.716;7.086;2024-03-22T12:34:29;100401.53;;;16.70;86.57
32131;BME280;18639;50.716;7.086;2024-03-22T12:36:55;100387.25;;;16.74;86.64